Time;durP1;ratioP1;P1;durP2;ratioP2;P2;SDS_P1;SDS_P2;PMS_P1;PMS_P2;Temp;Humidity;BMP_temperature;BMP_pressure;BME280_temperature;BME280_humidity;BME280_pressure;Samples;Min_cycle;Max_cycle;Signal;HPM_P1;HPM_P2
2022/08/29 00:01:46;;;;;;;5.15;1.95;;;18.50;99.90;;;;;;5065765;28;20017;-83
2022/08/29 00:04:13;;;;;;;2.88;1.40;;;18.50;99.90;;;;;;5070373;28;20021;-84
2022/08/29 00:06:39;;;;;;;4.05;1.77;;;18.40;99.90;;;;;;5064044;28;20028;-86
2022/08/29 00:09:05;;;;;;;2.80;1.35;;;18.40;99.90;;;;;;5058817;28;20028;-84
2022/08/29 00:11:31;;;;;;;4.30;1.90;;;18.40;99.90;;;;;;5062499;28;20020;-85
2022/08/29 00:13:58;;;;;;;4.07;1.70;;;18.40;99.90;;;;;;5067439;28;20024;-84
2022/08/29 00:16:23;;;;;;;3.53;1.67;;;18.40;99.90;;;;;;5065281;28;20025;-84
2022/08/29 00:18:49;;;;;;;3.58;1.60;;;18.30;99.90;;;;;;5071046;28;20056;-85
2022/08/29 00:21:15;;;;;;;3.35;1.85;;;18.30;99.90;;;;;;5067430;28;20017;-85
2022/08/29 00:23:43;;;;;;;5.05;1.75;;;18.30;99.90;;;;;;5069616;28;20021;-85
2022/08/29 00:26:09;;;;;;;4.22;1.65;;;18.30;99.90;;;;;;5060798;28;20017;-84
2022/08/29 00:28:34;;;;;;;4.13;1.75;;;18.20;99.90;;;;;;5066812;28;20032;-84
2022/08/29 00:31:00;;;;;;;4.45;1.92;;;18.20;99.90;;;;;;5061229;28;20024;-84
2022/08/29 00:33:26;;;;;;;3.63;2.05;;;18.10;99.90;;;;;;5067256;28;20450;-84
2022/08/29 00:35:52;;;;;;;5.88;1.92;;;18.10;99.90;;;;;;5071596;28;20116;-83
2022/08/29 00:38:18;;;;;;;3.72;1.48;;;18.10;99.90;;;;;;5068137;28;20029;-84
2022/08/29 00:40:48;;;;;;;4.10;1.80;;;18.10;99.90;;;;;;5072057;28;20051;-84
2022/08/29 00:43:13;;;;;;;3.33;1.77;;;18.00;99.90;;;;;;5063034;28;20025;-84
2022/08/29 00:45:45;;;;;;;4.03;1.98;;;18.00;99.90;;;;;;5069984;28;20029;-84
2022/08/29 00:48:14;;;;;;;3.58;1.70;;;18.00;99.90;;;;;;5066448;28;20021;-85
2022/08/29 00:50:46;;;;;;;3.83;1.67;;;18.00;99.90;;;;;;5066990;28;20029;-85
2022/08/29 00:53:15;;;;;;;5.50;1.77;;;18.00;99.90;;;;;;5073842;28;20021;-84
2022/08/29 00:55:44;;;;;;;5.05;2.05;;;17.90;99.90;;;;;;5077070;28;20016;-84
2022/08/29 00:58:14;;;;;;;4.18;1.80;;;17.90;99.90;;;;;;5067654;28;20485;-85
2022/08/29 01:00:42;;;;;;;3.50;1.80;;;17.90;99.90;;;;;;5074269;28;20025;-84
2022/08/29 01:03:08;;;;;;;3.33;1.65;;;17.90;99.90;;;;;;5070958;28;20052;-85
2022/08/29 01:05:35;;;;;;;3.42;1.60;;;17.80;99.90;;;;;;5068073;28;20032;-85
2022/08/29 01:08:01;;;;;;;3.28;1.70;;;17.80;99.90;;;;;;5069558;28;20021;-83
2022/08/29 01:13:12;;;;;;;3.95;1.40;;;17.70;99.90;;;;;;5070751;28;20063;-83
2022/08/29 01:15:40;;;;;;;4.40;1.85;;;17.60;99.90;;;;;;5065498;28;20473;-84
2022/08/29 01:18:07;;;;;;;4.38;2.05;;;17.60;99.90;;;;;;5076376;28;20063;-84
2022/08/29 01:20:43;;;;;;;3.75;1.90;;;17.60;99.90;;;;;;5074177;28;20032;-84
2022/08/29 01:23:21;;;;;;;3.47;1.85;;;17.60;99.90;;;;;;5073020;28;20008;-84
2022/08/29 01:25:50;;;;;;;4.65;2.25;;;17.60;99.90;;;;;;5069922;28;20040;-85
2022/08/29 01:28:24;;;;;;;5.95;2.13;;;17.60;99.90;;;;;;5074174;28;20022;-84
2022/08/29 01:31:14;;;;;;;3.58;1.88;;;17.50;99.90;;;;;;5071610;28;20017;-84
2022/08/29 01:33:50;;;;;;;4.53;2.10;;;17.50;99.90;;;;;;5064826;28;20068;-84
2022/08/29 01:36:24;;;;;;;4.40;2.40;;;17.50;99.90;;;;;;5070513;28;20025;-85
2022/08/29 01:38:50;;;;;;;4.53;2.30;;;17.40;99.90;;;;;;5067229;28;20035;-84
2022/08/29 01:41:17;;;;;;;5.45;2.30;;;17.40;99.90;;;;;;5068500;28;20025;-84
2022/08/29 01:43:47;;;;;;;5.30;2.47;;;17.40;99.90;;;;;;5069445;28;20075;-84
2022/08/29 01:46:15;;;;;;;4.18;2.40;;;17.30;99.90;;;;;;5064275;28;20020;-84
2022/08/29 01:48:43;;;;;;;7.30;2.45;;;17.30;99.90;;;;;;5072634;28;20021;-85
2022/08/29 01:51:10;;;;;;;5.70;2.70;;;17.30;99.90;;;;;;5074225;28;20029;-85
2022/08/29 01:53:37;;;;;;;4.40;2.30;;;17.30;99.90;;;;;;5071862;28;20041;-84
2022/08/29 01:56:13;;;;;;;7.63;3.25;;;17.30;99.90;;;;;;5076184;28;20024;-84
2022/08/29 01:58:40;;;;;;;6.07;3.00;;;17.20;99.90;;;;;;5059293;28;20030;-84
2022/08/29 02:01:07;;;;;;;5.93;2.60;;;17.20;99.90;;;;;;5069027;28;20443;-84
2022/08/29 02:03:32;;;;;;;6.07;2.55;;;17.20;99.90;;;;;;5068958;28;20105;-84
2022/08/29 02:06:00;;;;;;;4.95;2.45;;;17.20;99.90;;;;;;5067422;28;20434;-84
2022/08/29 02:08:26;;;;;;;6.70;2.90;;;17.10;99.90;;;;;;5070899;28;20024;-84
2022/08/29 02:10:52;;;;;;;7.72;2.70;;;17.10;99.90;;;;;;5068470;28;20040;-84
2022/08/29 02:13:17;;;;;;;5.97;2.75;;;17.10;99.90;;;;;;5069824;28;20072;-84
2022/08/29 02:15:43;;;;;;;5.80;2.80;;;17.10;99.90;;;;;;5053104;28;20036;-84
2022/08/29 02:18:09;;;;;;;5.13;2.53;;;17.10;99.90;;;;;;5066350;28;20024;-85
2022/08/29 02:20:35;;;;;;;4.38;2.63;;;17.10;99.90;;;;;;5060142;28;20108;-84
2022/08/29 02:23:00;;;;;;;6.90;3.35;;;17.10;99.90;;;;;;5068096;28;20009;-84
2022/08/29 02:25:41;;;;;;;6.25;3.22;;;17.10;99.90;;;;;;5061914;28;20097;-84
2022/08/29 02:28:12;;;;;;;5.40;3.20;;;17.10;99.90;;;;;;5058649;28;20020;-84
2022/08/29 02:30:43;;;;;;;7.78;3.60;;;17.00;99.90;;;;;;5060617;28;20021;-84
2022/08/29 02:33:09;;;;;;;7.20;3.95;;;17.00;99.90;;;;;;5068285;28;20052;-85
2022/08/29 02:35:35;;;;;;;6.05;3.28;;;17.00;99.90;;;;;;5063911;28;20544;-84
2022/08/29 02:38:01;;;;;;;6.25;3.17;;;17.00;99.90;;;;;;5067952;28;20048;-84
2022/08/29 02:40:27;;;;;;;8.48;3.88;;;17.00;99.90;;;;;;5067278;28;20025;-84
2022/08/29 02:42:54;;;;;;;5.97;3.10;;;17.00;99.90;;;;;;5067656;28;20051;-84
2022/08/29 02:45:21;;;;;;;6.93;3.30;;;17.00;99.90;;;;;;5065307;28;20013;-84
2022/08/29 02:47:47;;;;;;;5.93;3.75;;;17.10;99.90;;;;;;5072914;28;20025;-85
2022/08/29 02:50:13;;;;;;;7.65;3.80;;;17.00;99.90;;;;;;5064506;28;20028;-84
2022/08/29 02:52:39;;;;;;;5.93;2.97;;;17.00;99.90;;;;;;5068907;28;20055;-84
2022/08/29 02:55:07;;;;;;;7.03;3.33;;;17.00;99.90;;;;;;5064497;28;20044;-84
2022/08/29 02:57:33;;;;;;;6.65;3.97;;;17.00;99.90;;;;;;5068987;28;20073;-84
2022/08/29 02:59:58;;;;;;;7.60;3.75;;;16.90;99.90;;;;;;5064567;28;20036;-84
2022/08/29 03:02:24;;;;;;;8.30;3.78;;;17.00;99.90;;;;;;5064159;28;20020;-84
2022/08/29 03:04:49;;;;;;;10.30;3.95;;;17.00;99.90;;;;;;5074766;22;21524;-81
2022/08/29 03:07:15;;;;;;;5.20;2.78;;;17.00;99.90;;;;;;5070892;28;20028;-81
2022/08/29 03:09:41;;;;;;;4.97;2.97;;;16.90;99.90;;;;;;5078888;28;20125;-81
2022/08/29 03:12:07;;;;;;;6.00;3.47;;;17.00;99.90;;;;;;5085737;28;20024;-81
2022/08/29 03:14:32;;;;;;;6.88;3.13;;;16.80;99.90;;;;;;5092262;28;20527;-81
2022/08/29 03:16:58;;;;;;;6.07;2.95;;;16.80;99.90;;;;;;5078637;28;20507;-81
2022/08/29 03:19:24;;;;;;;6.38;3.53;;;16.70;99.90;;;;;;5093895;28;20396;-81
2022/08/29 03:21:50;;;;;;;5.60;2.97;;;16.60;99.90;;;;;;5086142;22;20044;-85
2022/08/29 03:24:16;;;;;;;6.60;3.72;;;16.70;99.90;;;;;;5071122;28;20027;-85
2022/08/29 03:26:42;;;;;;;7.43;3.20;;;16.70;99.90;;;;;;5065691;28;20389;-85
2022/08/29 03:29:07;;;;;;;7.20;3.38;;;16.70;99.90;;;;;;5072783;28;20105;-83
2022/08/29 03:31:34;;;;;;;6.85;3.70;;;16.70;99.90;;;;;;5075470;28;20058;-84
2022/08/29 03:34:00;;;;;;;7.35;2.97;;;16.70;99.90;;;;;;5067503;28;20029;-83
2022/08/29 03:36:25;;;;;;;5.38;2.97;;;16.70;99.90;;;;;;5067924;28;20031;-85
2022/08/29 03:38:52;;;;;;;7.15;3.03;;;16.70;99.90;;;;;;5065264;28;20044;-84
2022/08/29 03:41:26;;;;;;;6.72;3.13;;;16.60;99.90;;;;;;5071470;28;20025;-84
2022/08/29 03:43:57;;;;;;;5.53;2.90;;;16.70;99.90;;;;;;5068421;28;20440;-84
2022/08/29 03:46:24;;;;;;;6.20;3.15;;;16.60;99.90;;;;;;5074258;28;20036;-85
2022/08/29 03:48:49;;;;;;;4.97;2.75;;;16.60;99.90;;;;;;5075668;28;20028;-84
2022/08/29 03:51:16;;;;;;;6.57;3.10;;;16.60;99.90;;;;;;5071665;28;20032;-84
2022/08/29 03:53:42;;;;;;;7.25;2.88;;;16.60;99.90;;;;;;5074559;28;20496;-84
2022/08/29 03:56:08;;;;;;;5.72;3.03;;;16.50;99.90;;;;;;5090190;28;20024;-84
2022/08/29 03:58:34;;;;;;;5.68;3.22;;;16.60;99.90;;;;;;5076779;28;20369;-84
2022/08/29 04:01:00;;;;;;;5.13;2.83;;;16.50;99.90;;;;;;5073563;28;20031;-84
2022/08/29 04:03:26;;;;;;;6.30;3.20;;;16.50;99.90;;;;;;5073430;28;20027;-85
2022/08/29 04:05:52;;;;;;;5.25;2.60;;;16.50;99.90;;;;;;5073875;28;20016;-84
2022/08/29 04:08:18;;;;;;;5.25;2.80;;;16.40;99.90;;;;;;5071502;28;20025;-84
2022/08/29 04:10:44;;;;;;;5.00;2.60;;;16.30;99.90;;;;;;5072995;28;20032;-84
2022/08/29 04:13:11;;;;;;;5.65;2.70;;;16.30;99.90;;;;;;5094258;28;20021;-84
2022/08/29 04:15:39;;;;;;;6.55;2.80;;;16.30;99.90;;;;;;5076606;28;20017;-84
2022/08/29 04:18:07;;;;;;;6.32;3.28;;;16.30;99.90;;;;;;5073830;28;20563;-84
2022/08/29 04:20:40;;;;;;;5.72;2.40;;;16.20;99.90;;;;;;5072686;28;20147;-84
2022/08/29 04:23:06;;;;;;;5.15;2.88;;;16.30;99.90;;;;;;5071119;28;20012;-84
2022/08/29 04:25:35;;;;;;;4.93;2.72;;;16.30;99.90;;;;;;5074475;28;20051;-84
2022/08/29 04:28:03;;;;;;;5.10;2.40;;;16.20;99.90;;;;;;5074127;28;20001;-84
2022/08/29 04:30:29;;;;;;;6.45;3.30;;;16.30;99.90;;;;;;5073731;28;20039;-84
2022/08/29 04:32:55;;;;;;;4.80;2.60;;;16.30;99.90;;;;;;5072757;28;20025;-84
2022/08/29 04:35:21;;;;;;;6.55;3.08;;;16.30;99.90;;;;;;5071154;28;20377;-84
2022/08/29 04:37:48;;;;;;;3.95;2.25;;;16.20;99.90;;;;;;5071418;28;20029;-84
2022/08/29 04:40:17;;;;;;;4.82;2.90;;;16.10;99.90;;;;;;5073233;28;20024;-84
2022/08/29 04:42:43;;;;;;;6.18;2.60;;;16.10;99.90;;;;;;5069571;28;20020;-84
2022/08/29 04:45:15;;;;;;;7.00;3.47;;;16.10;99.90;;;;;;5071491;28;20032;-84
2022/08/29 04:47:41;;;;;;;5.85;2.85;;;16.10;99.90;;;;;;5072652;28;20029;-84
2022/08/29 04:50:10;;;;;;;7.25;3.22;;;16.10;99.90;;;;;;5071450;28;20111;-84
2022/08/29 04:52:36;;;;;;;5.75;3.17;;;16.10;99.90;;;;;;5071204;28;20058;-84
2022/08/29 04:55:03;;;;;;;7.32;3.22;;;16.20;99.90;;;;;;5072073;28;20108;-84
2022/08/29 04:57:29;;;;;;;8.40;3.63;;;16.20;99.90;;;;;;5071358;28;20036;-86
2022/08/29 04:59:57;;;;;;;7.45;3.45;;;16.20;99.90;;;;;;5071795;28;20085;-84
2022/08/29 05:02:23;;;;;;;6.30;3.72;;;16.20;99.90;;;;;;5070500;28;20017;-84
2022/08/29 05:04:51;;;;;;;6.32;3.35;;;16.30;99.90;;;;;;5064897;28;20493;-85
2022/08/29 05:07:19;;;;;;;6.30;3.25;;;16.30;99.90;;;;;;5072264;28;20021;-84
2022/08/29 05:09:49;;;;;;;8.98;4.20;;;16.30;99.90;;;;;;5065710;28;20039;-84
2022/08/29 05:12:15;;;;;;;5.60;3.58;;;16.30;99.90;;;;;;5057757;28;20037;-84
2022/08/29 05:14:40;;;;;;;5.85;3.15;;;16.40;99.90;;;;;;5064684;28;20512;-84
2022/08/29 05:17:06;;;;;;;6.82;2.92;;;16.40;99.90;;;;;;5060080;28;20017;-84
2022/08/29 05:19:32;;;;;;;5.03;2.95;;;16.40;99.90;;;;;;5070009;28;20154;-85
2022/08/29 05:21:58;;;;;;;6.68;2.88;;;16.50;99.90;;;;;;5087332;28;20020;-84
2022/08/29 05:24:24;;;;;;;5.00;3.10;;;16.50;99.90;;;;;;5067063;28;20032;-85
2022/08/29 05:26:50;;;;;;;5.75;3.08;;;16.50;99.90;;;;;;5071118;28;20458;-84
2022/08/29 05:29:16;;;;;;;6.43;3.28;;;16.60;99.90;;;;;;5064902;28;20016;-84
2022/08/29 05:31:41;;;;;;;7.53;3.25;;;16.50;99.90;;;;;;5070773;28;20104;-87
2022/08/29 05:34:10;;;;;;;6.80;3.60;;;16.60;99.90;;;;;;5065279;28;20413;-85
2022/08/29 05:36:35;;;;;;;6.88;2.85;;;16.60;99.90;;;;;;5069046;28;20021;-85
2022/08/29 05:39:02;;;;;;;7.15;3.30;;;16.60;99.90;;;;;;5083343;28;20032;-84
2022/08/29 05:41:28;;;;;;;7.57;3.53;;;16.60;99.90;;;;;;5067166;28;20156;-86
2022/08/29 05:43:55;;;;;;;9.45;3.50;;;16.60;99.90;;;;;;5061668;28;20111;-84
2022/08/29 05:46:21;;;;;;;6.80;3.70;;;16.70;99.90;;;;;;5063781;28;20013;-84
2022/08/29 05:48:47;;;;;;;6.82;3.28;;;16.80;99.90;;;;;;5062176;28;20652;-86
2022/08/29 05:51:20;;;;;;;5.88;3.42;;;16.80;99.90;;;;;;5071570;28;20029;-85
2022/08/29 05:53:46;;;;;;;5.97;3.13;;;16.90;99.90;;;;;;5072069;28;20392;-85
2022/08/29 05:56:20;;;;;;;5.70;3.10;;;17.00;99.90;;;;;;5072787;28;20020;-86
2022/08/29 05:58:46;;;;;;;5.88;3.10;;;17.10;99.90;;;;;;5073643;28;20460;-86
2022/08/29 06:01:26;;;;;;;7.65;3.25;;;17.20;99.90;;;;;;5089916;28;20081;-86
2022/08/29 06:03:52;;;;;;;7.10;3.33;;;17.30;99.90;;;;;;5090185;28;20107;-85
2022/08/29 06:06:20;;;;;;;5.00;2.95;;;17.30;99.90;;;;;;5074558;28;20067;-85
2022/08/29 06:08:46;;;;;;;7.80;3.67;;;17.40;99.90;;;;;;5074723;28;20069;-85
2022/08/29 06:11:27;;;;;;;7.35;4.10;;;17.50;99.90;;;;;;5090561;28;20024;-85
2022/08/29 06:13:53;;;;;;;7.13;3.35;;;17.60;99.90;;;;;;5073338;28;20021;-85
2022/08/29 06:16:21;;;;;;;7.45;3.95;;;17.60;99.90;;;;;;5073408;28;20024;-85
2022/08/29 06:18:47;;;;;;;8.65;3.85;;;17.80;99.90;;;;;;5074407;28;20052;-85
2022/08/29 06:21:13;;;;;;;6.93;3.72;;;17.90;99.90;;;;;;5072478;28;20109;-85
2022/08/29 06:23:41;;;;;;;9.07;3.55;;;17.90;99.90;;;;;;5070852;28;20531;-85
2022/08/29 06:26:08;;;;;;;7.93;3.42;;;18.00;99.90;;;;;;5072543;28;20515;-85
2022/08/29 06:28:39;;;;;;;6.65;4.00;;;18.10;99.90;;;;;;5072303;28;20980;-85
2022/08/29 06:31:05;;;;;;;6.28;3.80;;;18.30;99.90;;;;;;5070945;28;20021;-85
2022/08/29 06:33:31;;;;;;;6.32;3.95;;;18.30;99.90;;;;;;5074255;28;20058;-86
2022/08/29 06:35:57;;;;;;;7.70;3.72;;;18.50;99.90;;;;;;5071690;28;20028;-86
2022/08/29 06:38:22;;;;;;;9.88;3.80;;;18.50;99.90;;;;;;5072252;28;20499;-85
2022/08/29 06:40:48;;;;;;;6.72;3.90;;;18.60;99.90;;;;;;5072237;28;20115;-85
2022/08/29 06:43:14;;;;;;;7.95;4.18;;;18.60;99.90;;;;;;5069788;28;20464;-85
2022/08/29 06:45:43;;;;;;;6.55;4.18;;;18.70;99.90;;;;;;5071979;28;20104;-85
2022/08/29 06:48:09;;;;;;;5.57;3.30;;;18.80;99.90;;;;;;5083075;28;20111;-85
2022/08/29 06:50:36;;;;;;;13.00;3.72;;;18.90;99.90;;;;;;5071669;28;20079;-85
2022/08/29 06:53:03;;;;;;;7.88;3.95;;;18.80;99.90;;;;;;5072326;28;20020;-85
2022/08/29 06:55:28;;;;;;;6.80;3.53;;;18.80;99.90;;;;;;5071683;28;20067;-85
2022/08/29 06:57:54;;;;;;;7.22;3.92;;;18.90;99.90;;;;;;5064369;28;20446;-85
2022/08/29 07:00:20;;;;;;;9.32;3.88;;;19.00;99.90;;;;;;5072052;28;20074;-86
2022/08/29 07:02:50;;;;;;;6.40;3.70;;;19.10;99.90;;;;;;5071294;28;20477;-86
2022/08/29 07:05:16;;;;;;;8.80;4.10;;;19.10;99.90;;;;;;5071651;28;20499;-86
2022/08/29 07:07:41;;;;;;;6.45;3.40;;;19.20;99.90;;;;;;5071357;28;20016;-86
2022/08/29 07:10:08;;;;;;;6.45;3.42;;;19.20;99.90;;;;;;5073003;28;20023;-85
2022/08/29 07:12:34;;;;;;;5.72;3.33;;;19.20;99.90;;;;;;5072449;28;20029;-85
2022/08/29 07:15:00;;;;;;;7.47;3.50;;;19.40;99.90;;;;;;5071205;28;20127;-85
2022/08/29 07:17:28;;;;;;;6.57;3.45;;;19.50;99.90;;;;;;5071244;28;20024;-86
2022/08/29 07:19:54;;;;;;;7.97;4.68;;;19.30;99.90;;;;;;5066615;28;20477;-85
2022/08/29 07:22:19;;;;;;;9.32;3.70;;;19.40;99.90;;;;;;5065609;28;20029;-85
2022/08/29 07:24:45;;;;;;;8.13;4.10;;;19.60;99.90;;;;;;5070685;28;20048;-85
2022/08/29 07:27:12;;;;;;;7.57;4.40;;;19.70;99.90;;;;;;5072050;28;20527;-85
2022/08/29 07:29:38;;;;;;;8.70;3.95;;;19.90;99.90;;;;;;5065378;28;20130;-85
2022/08/29 07:32:04;;;;;;;6.30;3.20;;;20.00;99.90;;;;;;5070092;28;20691;-85
2022/08/29 07:34:30;;;;;;;8.63;3.90;;;20.10;99.90;;;;;;5072153;28;20051;-85
2022/08/29 07:36:56;;;;;;;7.25;3.90;;;20.20;99.90;;;;;;5071696;28;20023;-85
2022/08/29 07:39:22;;;;;;;10.43;4.22;;;20.30;99.90;;;;;;5070802;28;20111;-86
2022/08/29 07:41:49;;;;;;;5.78;3.13;;;20.40;99.90;;;;;;5069717;28;20025;-86
2022/08/29 07:44:16;;;;;;;6.30;3.35;;;20.60;99.90;;;;;;5068983;28;20124;-86
2022/08/29 07:46:42;;;;;;;6.35;3.40;;;20.70;99.90;;;;;;5070118;28;20016;-86
2022/08/29 07:49:08;;;;;;;6.18;3.17;;;20.80;99.90;;;;;;5069637;28;20392;-86
2022/08/29 07:51:34;;;;;;;6.47;3.08;;;20.70;99.90;;;;;;5071549;28;20030;-85
2022/08/29 07:54:01;;;;;;;6.53;3.38;;;20.80;99.90;;;;;;5070382;28;20020;-85
2022/08/29 07:56:31;;;;;;;7.43;3.17;;;20.90;99.90;;;;;;5068794;28;20060;-86
2022/08/29 07:58:58;;;;;;;6.47;3.28;;;21.10;99.90;;;;;;5063076;28;20020;-86
2022/08/29 08:01:25;;;;;;;6.10;2.75;;;21.20;99.90;;;;;;5069580;28;20029;-86
2022/08/29 08:03:51;;;;;;;5.55;2.63;;;21.20;99.90;;;;;;5070285;28;20477;-86
2022/08/29 08:06:19;;;;;;;6.43;2.65;;;21.40;99.90;;;;;;5061625;28;20017;-86
2022/08/29 08:08:49;;;;;;;5.35;3.00;;;21.50;99.90;;;;;;5070606;28;20033;-85
2022/08/29 08:11:15;;;;;;;6.35;3.10;;;21.50;99.90;;;;;;5068128;28;20453;-85
2022/08/29 08:13:41;;;;;;;6.03;2.88;;;21.60;99.90;;;;;;5070304;28;20032;-85
2022/08/29 08:16:11;;;;;;;5.90;2.80;;;21.70;99.90;;;;;;5070875;28;20401;-85
2022/08/29 08:18:38;;;;;;;6.10;2.75;;;21.80;99.90;;;;;;5045385;28;20052;-85
2022/08/29 08:21:04;;;;;;;5.00;2.42;;;21.90;99.90;;;;;;5064487;28;20021;-86
2022/08/29 08:23:30;;;;;;;5.70;3.15;;;22.00;99.90;;;;;;5068328;28;20073;-86
2022/08/29 08:25:56;;;;;;;5.03;2.60;;;22.10;99.90;;;;;;5082902;28;20017;-86
2022/08/29 08:28:22;;;;;;;5.70;2.85;;;22.10;99.90;;;;;;5072402;28;20012;-86
2022/08/29 08:30:48;;;;;;;5.32;2.65;;;22.30;99.90;;;;;;5070172;28;20051;-85
2022/08/29 08:33:13;;;;;;;6.75;3.42;;;22.40;99.90;;;;;;5069756;28;20119;-85
2022/08/29 08:35:39;;;;;;;5.32;2.63;;;22.50;99.90;;;;;;5067998;28;20055;-85
2022/08/29 08:38:07;;;;;;;6.03;2.35;;;22.50;99.90;;;;;;5086568;28;20369;-86
2022/08/29 08:40:45;;;;;;;5.45;2.83;;;22.60;99.90;;;;;;5070114;28;20054;-86
2022/08/29 08:43:15;;;;;;;6.95;3.33;;;22.80;99.90;;;;;;5064156;28;20024;-85
2022/08/29 08:45:42;;;;;;;4.85;2.97;;;22.70;99.90;;;;;;5070775;28;20048;-85
2022/08/29 08:48:22;;;;;;;4.63;2.30;;;22.90;99.90;;;;;;5069642;28;20020;-85
2022/08/29 08:50:57;;;;;;;5.85;2.15;;;23.10;99.90;;;;;;5069030;28;20162;-85
2022/08/29 08:53:32;;;;;;;5.20;2.35;;;23.10;99.90;;;;;;5071808;28;20021;-86
2022/08/29 08:56:00;;;;;;;4.47;1.95;;;23.10;99.90;;;;;;5063744;28;20021;-85
2022/08/29 08:58:43;;;;;;;4.45;2.08;;;23.20;99.90;;;;;;5070132;28;20039;-86
2022/08/29 09:01:18;;;;;;;5.93;2.03;;;23.20;99.90;;;;;;5068417;28;20047;-86
2022/08/29 09:04:02;;;;;;;3.83;2.20;;;23.30;99.90;;;;;;5069199;28;20025;-85
2022/08/29 09:07:01;;;;;;;3.53;1.45;;;23.40;99.90;;;;;;5064935;28;20385;-85
2022/08/29 09:09:37;;;;;;;3.92;2.28;;;23.70;99.90;;;;;;5068969;28;20021;-85
2022/08/29 09:12:31;;;;;;;4.22;1.70;;;23.70;99.90;;;;;;5080724;28;20435;-86
2022/08/29 09:15:02;;;;;;;4.25;1.90;;;23.90;99.90;;;;;;5063444;28;20025;-85
2022/08/29 09:17:43;;;;;;;3.40;1.70;;;24.00;99.90;;;;;;5068357;28;20028;-86
2022/08/29 09:20:17;;;;;;;3.55;1.67;;;24.00;99.90;;;;;;5064557;28;20049;-87
2022/08/29 09:22:48;;;;;;;4.32;2.15;;;24.20;99.90;;;;;;5092105;22;20408;-82
2022/08/29 09:25:14;;;;;;;4.32;2.17;;;24.40;99.90;;;;;;5081983;28;20091;-81
2022/08/29 09:27:40;;;;;;;4.13;1.95;;;24.50;99.90;;;;;;5088244;28;20544;-82
2022/08/29 09:30:13;;;;;;;4.43;1.85;;;24.50;99.90;;;;;;5080753;28;20025;-81
2022/08/29 09:32:51;;;;;;;4.05;1.90;;;24.50;99.90;;;;;;5080219;28;20021;-81
2022/08/29 09:35:23;;;;;;;5.80;1.98;;;24.70;99.90;;;;;;5071411;28;20031;-82
2022/08/29 09:38:01;;;;;;;5.35;1.95;;;24.80;99.90;;;;;;5071289;28;20116;-81
2022/08/29 09:40:41;;;;;;;4.07;1.50;;;24.90;99.90;;;;;;5069461;28;20029;-82
2022/08/29 09:43:07;;;;;;;3.03;1.48;;;24.80;99.90;;;;;;5064654;28;20070;-81
2022/08/29 09:45:33;;;;;;;3.75;1.73;;;24.70;99.90;;;;;;5070887;28;20028;-81
2022/08/29 09:48:16;;;;;;;4.88;2.00;;;24.80;99.90;;;;;;5063106;28;20029;-81
2022/08/29 09:50:42;;;;;;;4.22;1.60;;;24.80;99.90;;;;;;5063586;28;20028;-81
2022/08/29 09:53:08;;;;;;;5.78;2.70;;;24.90;99.90;;;;;;5060355;28;20047;-81
2022/08/29 09:55:43;;;;;;;4.68;2.03;;;25.00;99.90;;;;;;5072433;28;20552;-81
2022/08/29 09:58:15;;;;;;;3.65;1.92;;;25.20;99.90;;;;;;5072694;28;20454;-82
2022/08/29 10:00:58;;;;;;;2.75;1.30;;;25.30;99.90;;;;;;5073341;28;20392;-82
2022/08/29 10:03:25;;;;;;;2.80;1.48;;;25.40;99.90;;;;;;5073108;28;20153;-81
2022/08/29 10:06:14;;;;;;;6.20;2.05;;;25.70;99.90;;;;;;5072396;28;20456;-81
2022/08/29 10:08:41;;;;;;;4.43;1.83;;;25.70;99.90;;;;;;5070378;28;20372;-82
2022/08/29 10:11:31;;;;;;;4.60;1.65;;;25.80;99.90;;;;;;5073393;28;20028;-82
2022/08/29 10:14:08;;;;;;;3.58;1.40;;;25.90;99.90;;;;;;5071886;28;20021;-81
2022/08/29 10:16:50;;;;;;;3.00;1.50;;;26.00;99.90;;;;;;5070586;28;20028;-82
2022/08/29 10:19:21;;;;;;;3.67;1.42;;;26.00;99.90;;;;;;5072984;28;20090;-82
2022/08/29 10:21:59;;;;;;;3.72;1.83;;;26.10;99.90;;;;;;5066553;28;20389;-82
2022/08/29 10:24:33;;;;;;;3.08;1.30;;;26.20;99.70;;;;;;5085465;28;20043;-81
2022/08/29 10:27:15;;;;;;;3.30;1.65;;;26.30;99.00;;;;;;5071966;28;20396;-82
2022/08/29 10:29:52;;;;;;;2.83;1.30;;;26.50;99.00;;;;;;5072945;28;20021;-82
2022/08/29 10:32:36;;;;;;;3.60;1.40;;;26.50;99.20;;;;;;5067760;28;20017;-81
2022/08/29 10:35:07;;;;;;;3.15;1.40;;;26.40;98.30;;;;;;5070135;28;20055;-81
2022/08/29 10:37:47;;;;;;;3.10;1.10;;;26.70;97.70;;;;;;5071604;28;20354;-82
2022/08/29 10:40:27;;;;;;;3.40;1.30;;;26.50;97.60;;;;;;5068003;28;20063;-82
2022/08/29 10:43:12;;;;;;;2.40;1.10;;;26.50;97.80;;;;;;5072174;28;20504;-82
2022/08/29 10:46:07;;;;;;;2.53;1.30;;;26.30;96.60;;;;;;5069671;28;20143;-82
2022/08/29 10:48:40;;;;;;;2.45;1.13;;;26.20;97.40;;;;;;5070060;28;20378;-82
2022/08/29 10:51:30;;;;;;;2.97;1.10;;;26.20;97.50;;;;;;5068421;28;20392;-82
2022/08/29 10:54:33;;;;;;;2.53;1.15;;;26.30;97.20;;;;;;5065638;28;20039;-82
2022/08/29 10:57:00;;;;;;;2.63;1.40;;;26.40;96.90;;;;;;5064634;28;20027;-81
2022/08/29 10:59:41;;;;;;;3.55;1.30;;;26.50;97.70;;;;;;5069822;28;20366;-81
2022/08/29 11:02:21;;;;;;;3.67;1.40;;;26.80;97.20;;;;;;5082139;28;20028;-82
2022/08/29 11:04:52;;;;;;;1.98;1.05;;;26.90;96.50;;;;;;5069603;28;20401;-81
2022/08/29 11:07:20;;;;;;;2.63;1.33;;;26.80;96.90;;;;;;5068888;28;20115;-82
2022/08/29 11:09:53;;;;;;;2.33;1.08;;;26.60;97.60;;;;;;5071771;28;20067;-81
2022/08/29 11:12:33;;;;;;;2.63;1.13;;;26.50;96.80;;;;;;5070252;28;20054;-81
2022/08/29 11:15:08;;;;;;;3.22;1.45;;;26.30;96.70;;;;;;5070348;28;20021;-81
2022/08/29 11:17:38;;;;;;;3.30;1.40;;;26.50;96.90;;;;;;5067510;28;20436;-81
2022/08/29 11:20:10;;;;;;;2.60;1.43;;;26.50;97.00;;;;;;5070992;28;20020;-81
2022/08/29 11:22:45;;;;;;;3.42;1.40;;;26.70;97.20;;;;;;5071286;28;20271;-81
2022/08/29 11:25:14;;;;;;;3.22;1.70;;;26.80;96.40;;;;;;5071670;28;20017;-81
2022/08/29 11:28:03;;;;;;;4.15;1.40;;;26.80;96.30;;;;;;5069936;28;20493;-81
2022/08/29 11:30:55;;;;;;;3.60;1.52;;;26.90;95.80;;;;;;5067287;28;20056;-82
2022/08/29 11:33:54;;;;;;;3.95;1.30;;;27.00;95.90;;;;;;5071796;28;20047;-81
2022/08/29 11:36:28;;;;;;;2.28;1.20;;;27.20;96.50;;;;;;5066747;28;20023;-81
2022/08/29 11:39:18;;;;;;;2.50;1.27;;;27.40;95.50;;;;;;5068025;28;20052;-82
2022/08/29 11:41:47;;;;;;;2.20;1.10;;;27.60;95.30;;;;;;5071968;28;20024;-81
2022/08/29 11:44:30;;;;;;;3.72;1.17;;;27.80;94.60;;;;;;5064293;28;20031;-81
2022/08/29 11:46:56;;;;;;;4.05;1.50;;;27.80;94.40;;;;;;5066152;28;20020;-83
2022/08/29 11:49:42;;;;;;;2.97;1.33;;;27.40;94.80;;;;;;5071692;28;20043;-81
2022/08/29 11:52:09;;;;;;;5.85;1.00;;;27.70;95.30;;;;;;5070077;28;20099;-81
2022/08/29 11:54:35;;;;;;;3.33;1.52;;;27.70;94.50;;;;;;5085961;28;20028;-82
2022/08/29 11:57:01;;;;;;;3.35;1.63;;;27.80;94.10;;;;;;5059908;28;20680;-82
2022/08/29 11:59:47;;;;;;;2.80;1.27;;;27.70;94.10;;;;;;5071163;28;20057;-81
2022/08/29 12:02:30;;;;;;;4.18;1.45;;;27.70;94.50;;;;;;5066337;28;20013;-82
2022/08/29 12:05:15;;;;;;;2.28;1.25;;;28.00;93.30;;;;;;5068094;28;20469;-82
2022/08/29 12:07:49;;;;;;;3.53;1.10;;;28.20;93.30;;;;;;5069036;28;20059;-82
2022/08/29 12:10:22;;;;;;;2.53;1.13;;;28.60;93.20;;;;;;5069656;28;20028;-82
2022/08/29 12:12:56;;;;;;;3.35;1.40;;;28.90;92.20;;;;;;5086843;28;20452;-82
2022/08/29 12:15:31;;;;;;;2.78;1.48;;;29.30;92.10;;;;;;5067795;28;20032;-84
2022/08/29 12:18:11;;;;;;;2.10;1.08;;;29.20;92.20;;;;;;5064636;28;20103;-82
2022/08/29 12:20:42;;;;;;;2.40;1.02;;;28.90;91.10;;;;;;5084236;28;20025;-82
2022/08/29 12:23:11;;;;;;;3.00;1.10;;;29.30;90.80;;;;;;5060304;28;20101;-81
2022/08/29 12:25:43;;;;;;;3.55;1.30;;;29.10;90.80;;;;;;5070451;28;20028;-81
2022/08/29 12:28:22;;;;;;;3.25;1.40;;;28.70;91.20;;;;;;5070691;28;20012;-82
2022/08/29 12:30:57;;;;;;;2.75;1.20;;;28.40;92.00;;;;;;5070506;28;20456;-82
2022/08/29 12:33:53;;;;;;;2.42;0.98;;;28.40;91.80;;;;;;5068181;28;20029;-82
2022/08/29 12:36:40;;;;;;;2.88;1.10;;;28.80;91.20;;;;;;5064987;28;20535;-82
2022/08/29 12:39:40;;;;;;;2.40;1.20;;;29.00;90.50;;;;;;5062906;28;20025;-82
2022/08/29 12:42:35;;;;;;;2.40;1.20;;;29.30;90.20;;;;;;5064386;28;20082;-82
2022/08/29 12:45:25;;;;;;;2.65;1.27;;;29.00;90.50;;;;;;5069819;28;20025;-82
2022/08/29 12:47:55;;;;;;;1.92;0.98;;;28.60;90.70;;;;;;5068393;28;20044;-82
2022/08/29 12:50:25;;;;;;;2.33;1.40;;;28.40;90.60;;;;;;5069028;28;20025;-82
2022/08/29 12:53:06;;;;;;;3.25;1.08;;;28.70;91.10;;;;;;5068964;28;20027;-82
2022/08/29 12:55:39;;;;;;;2.75;1.38;;;29.00;90.80;;;;;;5069340;28;20067;-82
2022/08/29 12:58:11;;;;;;;2.70;1.30;;;29.50;90.90;;;;;;5061379;28;20021;-82
2022/08/29 13:00:37;;;;;;;2.90;1.02;;;29.20;89.20;;;;;;5069059;28;20032;-82
2022/08/29 13:03:10;;;;;;;2.40;1.00;;;28.90;89.30;;;;;;5070537;28;20044;-82
2022/08/29 13:05:38;;;;;;;3.47;1.38;;;28.70;90.60;;;;;;5068273;28;20020;-81